createdAt,value
2022-11-17T00:00:05.382Z,0.00
2022-11-17T00:01:05.441Z,0.00
2022-11-17T00:02:05.495Z,0.00
2022-11-17T00:03:05.368Z,0.00
2022-11-17T00:04:05.319Z,0.00
2022-11-17T00:05:05.311Z,0.00
2022-11-17T00:06:05.372Z,0.00
2022-11-17T00:07:05.344Z,0.00
2022-11-17T00:08:05.262Z,0.00
2022-11-17T00:09:05.311Z,0.00
2022-11-17T00:10:05.252Z,0.00
2022-11-17T00:11:05.287Z,0.00
2022-11-17T00:12:05.216Z,0.00
2022-11-17T00:13:05.231Z,0.00
2022-11-17T00:14:05.181Z,0.00
2022-11-17T00:15:05.252Z,0.00
2022-11-17T00:16:05.208Z,0.00
2022-11-17T00:17:05.182Z,0.00
2022-11-17T00:18:05.259Z,0.00
2022-11-17T00:19:05.175Z,0.00
2022-11-17T00:20:05.125Z,0.00
2022-11-17T00:21:05.150Z,0.00
2022-11-17T00:22:05.107Z,0.00
2022-11-17T00:23:05.124Z,0.00
2022-11-17T00:24:06.095Z,0.00
2022-11-17T00:25:05.083Z,0.00
2022-11-17T00:26:05.117Z,0.00
2022-11-17T00:27:05.062Z,0.00
2022-11-17T00:28:05.027Z,0.00
2022-11-17T00:29:05.057Z,0.00
2022-11-17T00:30:05.037Z,0.00
2022-11-17T00:31:05.116Z,0.00
2022-11-17T00:32:05.070Z,0.00
2022-11-17T00:33:04.975Z,0.00
2022-11-17T00:34:05.153Z,0.00
2022-11-17T00:35:04.986Z,0.00
2022-11-17T00:36:04.936Z,0.00
2022-11-17T00:37:04.968Z,0.00
2022-11-17T00:38:05.266Z,0.00
2022-11-17T00:39:04.897Z,0.00
2022-11-17T00:40:04.908Z,0.00
2022-11-17T00:41:04.876Z,0.00
2022-11-17T00:42:04.868Z,0.00
2022-11-17T00:43:04.883Z,0.00
2022-11-17T00:44:04.899Z,0.00
2022-11-17T00:45:04.889Z,0.00
2022-11-17T00:46:04.827Z,0.00
2022-11-17T00:47:04.836Z,0.00
2022-11-17T00:48:04.806Z,0.00
2022-11-17T00:49:04.801Z,0.00
2022-11-17T00:50:04.777Z,0.00
2022-11-17T00:51:04.788Z,0.00
2022-11-17T00:52:04.749Z,0.00
2022-11-17T00:53:04.738Z,0.00
2022-11-17T00:54:04.744Z,0.00
2022-11-17T00:55:04.763Z,0.00
2022-11-17T00:56:04.721Z,0.00
2022-11-17T00:57:04.736Z,0.00
2022-11-17T00:58:04.703Z,0.00
2022-11-17T00:59:04.708Z,0.00
2022-11-17T01:00:04.667Z,0.00
2022-11-17T01:01:04.717Z,0.00
2022-11-17T01:02:04.630Z,0.00
2022-11-17T01:03:04.648Z,0.00
2022-11-17T01:04:04.779Z,0.00
2022-11-17T01:05:04.610Z,0.00
2022-11-17T01:06:04.606Z,0.00
2022-11-17T01:07:04.599Z,0.00
2022-11-17T01:08:04.589Z,0.00
2022-11-17T01:09:04.596Z,0.00
2022-11-17T01:10:05.493Z,0.00
2022-11-17T01:11:04.559Z,0.00
2022-11-17T01:12:04.523Z,0.00
2022-11-17T01:13:04.531Z,0.00
2022-11-17T01:14:04.524Z,0.00
2022-11-17T01:15:04.511Z,0.00
2022-11-17T01:16:04.482Z,0.00
2022-11-17T01:17:04.469Z,0.00
2022-11-17T01:18:04.452Z,0.00
2022-11-17T01:19:04.441Z,0.00
2022-11-17T01:20:04.469Z,0.00
2022-11-17T01:21:04.423Z,0.00
2022-11-17T01:22:04.412Z,0.00
2022-11-17T01:23:04.405Z,0.00
2022-11-17T01:24:04.366Z,0.00
2022-11-17T01:25:04.357Z,0.00
2022-11-17T01:26:04.407Z,0.00
2022-11-17T01:27:04.364Z,0.00
2022-11-17T01:28:04.343Z,0.00
2022-11-17T01:29:04.343Z,0.00
2022-11-17T01:30:04.324Z,0.00
2022-11-17T01:31:04.315Z,0.00
2022-11-17T01:32:04.345Z,0.00
2022-11-17T01:33:04.275Z,0.00
2022-11-17T01:34:04.274Z,0.00
2022-11-17T01:35:04.285Z,0.00
2022-11-17T01:36:04.248Z,0.00
2022-11-17T01:37:04.241Z,0.00
2022-11-17T01:38:04.254Z,0.00
2022-11-17T01:39:04.214Z,0.00
2022-11-17T01:40:04.299Z,0.00
2022-11-17T01:41:04.178Z,0.00
2022-11-17T01:42:04.164Z,0.00
2022-11-17T01:43:04.147Z,0.00
2022-11-17T01:44:04.188Z,0.00
2022-11-17T01:45:04.127Z,0.00
2022-11-17T01:46:04.115Z,0.00
2022-11-17T01:47:04.108Z,0.00
2022-11-17T01:48:04.087Z,0.00
2022-11-17T01:49:04.097Z,0.00
2022-11-17T01:50:04.097Z,0.00
2022-11-17T01:51:04.099Z,0.00
2022-11-17T01:52:04.049Z,0.00
2022-11-17T01:53:04.027Z,0.00
2022-11-17T01:54:04.031Z,0.00
2022-11-17T01:55:04.043Z,0.00
2022-11-17T01:56:03.995Z,0.00
2022-11-17T01:57:03.990Z,0.00
2022-11-17T01:58:03.979Z,0.00
2022-11-17T01:59:03.957Z,0.00
2022-11-17T02:00:03.951Z,0.00
2022-11-17T02:01:04.011Z,0.00
2022-11-17T02:02:03.978Z,0.00
2022-11-17T02:03:03.924Z,0.00
2022-11-17T02:04:03.899Z,0.00
2022-11-17T02:05:03.889Z,0.00
2022-11-17T02:06:03.877Z,0.00
2022-11-17T02:07:03.943Z,0.00
2022-11-17T02:08:03.858Z,0.00
2022-11-17T02:09:03.850Z,0.00
2022-11-17T02:10:03.839Z,0.00
2022-11-17T02:11:03.905Z,0.00
2022-11-17T02:12:03.802Z,0.00
2022-11-17T02:13:03.819Z,0.00
2022-11-17T02:14:03.790Z,0.00
2022-11-17T02:15:03.770Z,0.00
2022-11-17T02:16:03.779Z,0.00
2022-11-17T02:17:11.465Z,0.00
2022-11-17T02:18:04.869Z,0.00
2022-11-17T02:19:03.719Z,0.00
2022-11-17T02:20:03.714Z,0.00
2022-11-17T02:21:03.719Z,0.00
2022-11-17T02:22:03.700Z,0.00
2022-11-17T02:23:03.683Z,0.00
2022-11-17T02:24:03.699Z,0.00
2022-11-17T02:25:03.643Z,0.00
2022-11-17T02:26:03.651Z,0.00
2022-11-17T02:27:03.632Z,0.00
2022-11-17T02:28:03.634Z,0.00
2022-11-17T02:29:03.663Z,0.00
2022-11-17T02:30:03.633Z,0.00
2022-11-17T02:31:03.591Z,0.00
2022-11-17T02:32:03.581Z,0.00
2022-11-17T02:33:03.621Z,0.00
2022-11-17T02:34:03.568Z,0.00
2022-11-17T02:35:03.562Z,0.00
2022-11-17T02:36:03.562Z,0.00
2022-11-17T02:37:03.531Z,0.00
2022-11-17T02:38:03.583Z,0.00
2022-11-17T02:39:03.514Z,0.00
2022-11-17T02:40:03.478Z,0.00
2022-11-17T02:41:03.501Z,0.00
2022-11-17T02:42:03.465Z,0.00
2022-11-17T02:43:03.453Z,0.00
2022-11-17T02:44:03.433Z,0.00
2022-11-17T02:45:03.452Z,0.00
2022-11-17T02:46:03.416Z,0.00
2022-11-17T02:47:03.429Z,0.00
2022-11-17T02:48:03.395Z,0.00
2022-11-17T02:49:03.394Z,0.00
2022-11-17T02:50:03.366Z,0.00
2022-11-17T02:51:03.355Z,0.00
2022-11-17T02:52:03.384Z,0.00
2022-11-17T02:53:03.359Z,0.00
2022-11-17T02:54:03.333Z,0.00
2022-11-17T02:55:03.310Z,0.00
2022-11-17T02:56:03.288Z,0.00
2022-11-17T02:57:03.295Z,0.00
2022-11-17T02:58:03.304Z,0.00
2022-11-17T02:59:03.285Z,0.00
2022-11-17T03:00:03.276Z,0.00
2022-11-17T03:01:03.226Z,0.00
2022-11-17T03:02:03.245Z,0.00
2022-11-17T03:03:03.282Z,0.00
2022-11-17T03:04:03.225Z,0.00
2022-11-17T03:05:03.201Z,0.00
2022-11-17T03:06:03.165Z,0.00
2022-11-17T03:07:03.225Z,0.00
2022-11-17T03:08:03.136Z,0.00
2022-11-17T03:09:03.184Z,0.00
2022-11-17T03:10:03.136Z,0.00
2022-11-17T03:11:03.135Z,0.00
2022-11-17T03:12:03.103Z,0.00
2022-11-17T03:13:03.090Z,0.00
2022-11-17T03:14:03.097Z,0.00
2022-11-17T03:15:03.107Z,0.00
2022-11-17T03:16:03.046Z,0.00
2022-11-17T03:17:03.081Z,0.00
2022-11-17T03:18:03.018Z,0.00
2022-11-17T03:19:03.019Z,0.00
2022-11-17T03:20:03.017Z,0.00
2022-11-17T03:21:03.017Z,0.00
2022-11-17T03:22:02.977Z,0.00
2022-11-17T03:23:02.968Z,0.00
2022-11-17T03:24:02.950Z,0.00
2022-11-17T03:25:02.953Z,0.00
2022-11-17T03:26:02.951Z,0.00
2022-11-17T03:27:02.949Z,0.00
2022-11-17T03:28:02.944Z,0.00
2022-11-17T03:29:02.893Z,0.00
2022-11-17T03:30:02.878Z,0.00
2022-11-17T03:31:02.888Z,0.00
2022-11-17T03:32:02.893Z,0.00
2022-11-17T03:33:02.891Z,0.00
2022-11-17T03:34:02.839Z,0.00
2022-11-17T03:35:02.850Z,0.00
2022-11-17T03:36:02.836Z,0.00
2022-11-17T03:37:02.819Z,0.00
2022-11-17T03:38:02.789Z,0.00
2022-11-17T03:39:02.853Z,0.00
2022-11-17T03:40:02.786Z,0.00
2022-11-17T03:41:02.774Z,0.00
2022-11-17T03:42:02.774Z,0.00
2022-11-17T03:43:02.782Z,0.00
2022-11-17T03:44:02.722Z,0.00
2022-11-17T03:45:02.778Z,0.00
2022-11-17T03:46:02.720Z,0.00
2022-11-17T03:47:02.690Z,0.00
2022-11-17T03:48:02.690Z,0.00
2022-11-17T03:49:02.695Z,0.00
2022-11-17T03:50:02.660Z,0.00
2022-11-17T03:51:02.671Z,0.00
2022-11-17T03:52:02.643Z,0.00
2022-11-17T03:53:02.651Z,0.00
2022-11-17T03:54:02.626Z,0.00
2022-11-17T03:55:02.596Z,0.00
2022-11-17T03:56:02.610Z,0.00
2022-11-17T03:57:02.578Z,0.00
2022-11-17T03:58:02.571Z,0.00
2022-11-17T03:59:02.551Z,0.00
2022-11-17T04:00:02.547Z,0.00
2022-11-17T04:01:02.537Z,0.00
2022-11-17T04:02:02.587Z,0.00
2022-11-17T04:03:02.537Z,0.00
2022-11-17T04:04:02.511Z,0.00
2022-11-17T04:05:02.476Z,0.00
2022-11-17T04:06:02.476Z,0.00
2022-11-17T04:07:02.535Z,0.00
2022-11-17T04:08:02.481Z,0.00
2022-11-17T04:09:02.428Z,0.00
2022-11-17T04:10:02.409Z,0.00
2022-11-17T04:11:02.416Z,0.00
2022-11-17T04:12:02.405Z,0.00
2022-11-17T04:13:02.378Z,0.00
2022-11-17T04:14:02.418Z,0.00
2022-11-17T04:15:02.379Z,0.00
2022-11-17T04:16:02.365Z,0.00
2022-11-17T04:17:02.385Z,0.00
2022-11-17T04:18:02.365Z,0.00
2022-11-17T04:19:02.345Z,0.00
2022-11-17T04:20:02.332Z,0.00
2022-11-17T04:21:02.298Z,0.00
2022-11-17T04:22:02.300Z,0.00
2022-11-17T04:23:02.275Z,0.00
2022-11-17T04:24:02.253Z,0.00
2022-11-17T04:25:02.276Z,0.00
2022-11-17T04:26:02.259Z,0.00
2022-11-17T04:27:02.232Z,0.00
2022-11-17T04:28:02.218Z,0.00
2022-11-17T04:29:02.927Z,0.00
2022-11-17T04:30:02.185Z,0.00
2022-11-17T04:31:02.222Z,0.00
2022-11-17T04:32:02.176Z,0.00
2022-11-17T04:33:02.149Z,0.00
2022-11-17T04:34:02.143Z,0.00
2022-11-17T04:35:02.135Z,0.00
2022-11-17T04:36:02.120Z,0.00
2022-11-17T04:37:08.007Z,0.00
2022-11-17T04:38:03.083Z,0.00
2022-11-17T04:39:02.084Z,0.00
2022-11-17T04:40:02.076Z,0.00
2022-11-17T04:41:02.079Z,0.00
2022-11-17T04:42:02.056Z,0.00
2022-11-17T04:43:02.050Z,0.00
2022-11-17T04:44:02.019Z,0.00
2022-11-17T04:45:02.012Z,0.00
2022-11-17T04:46:01.988Z,0.00
2022-11-17T04:47:01.981Z,0.00
2022-11-17T04:48:01.971Z,0.00
2022-11-17T04:49:01.976Z,0.00
2022-11-17T04:50:01.955Z,0.00
2022-11-17T04:51:01.932Z,0.00
2022-11-17T04:52:01.926Z,0.00
2022-11-17T04:53:01.934Z,0.00
2022-11-17T04:54:01.904Z,0.00
2022-11-17T04:55:01.922Z,0.00
2022-11-17T04:56:01.871Z,0.00
2022-11-17T04:57:01.902Z,0.00
2022-11-17T04:58:01.852Z,0.00
2022-11-17T04:59:01.845Z,0.00
2022-11-17T05:00:01.833Z,0.00
2022-11-17T05:01:01.902Z,0.00
2022-11-17T05:02:05.938Z,0.00
2022-11-17T05:03:01.807Z,0.00
2022-11-17T05:04:02.502Z,0.00
2022-11-17T05:05:01.762Z,0.00
2022-11-17T05:06:01.760Z,0.00
2022-11-17T05:07:01.812Z,0.00
2022-11-17T05:08:01.723Z,0.00
2022-11-17T05:09:01.743Z,0.00
2022-11-17T05:10:01.704Z,0.00
2022-11-17T05:11:01.728Z,0.00
2022-11-17T05:12:01.707Z,0.00
2022-11-17T05:13:01.678Z,0.00
2022-11-17T05:14:01.665Z,0.00
2022-11-17T05:15:01.695Z,0.00
2022-11-17T05:16:01.636Z,0.00
2022-11-17T05:17:08.473Z,0.00
2022-11-17T05:18:02.642Z,0.00
2022-11-17T05:19:01.638Z,0.00
2022-11-17T05:20:01.587Z,0.00
2022-11-17T05:21:01.591Z,0.00
2022-11-17T05:22:01.567Z,0.00
2022-11-17T05:23:06.522Z,0.00
2022-11-17T05:24:02.567Z,0.00
2022-11-17T05:25:01.541Z,0.00
2022-11-17T05:26:01.526Z,0.00
2022-11-17T05:27:01.510Z,0.00
2022-11-17T05:28:01.495Z,0.00
2022-11-17T05:29:01.565Z,0.00
2022-11-17T05:30:01.489Z,0.00
2022-11-17T05:31:01.460Z,0.00
2022-11-17T05:32:01.446Z,0.00
2022-11-17T05:33:01.438Z,0.00
2022-11-17T05:34:01.480Z,0.00
2022-11-17T05:35:01.439Z,0.00
2022-11-17T05:36:01.398Z,0.00
2022-11-17T05:37:01.398Z,0.00
2022-11-17T05:38:01.380Z,0.00
2022-11-17T05:39:01.369Z,0.00
2022-11-17T05:40:01.371Z,0.00
2022-11-17T05:41:01.369Z,0.00
2022-11-17T05:42:02.070Z,0.00
2022-11-17T05:43:01.336Z,0.00
2022-11-17T05:44:01.321Z,0.00
2022-11-17T05:45:01.310Z,0.00
2022-11-17T05:46:01.286Z,0.00
2022-11-17T05:47:01.310Z,0.00
2022-11-17T05:48:01.293Z,0.00
2022-11-17T05:49:01.249Z,0.00
2022-11-17T05:50:01.232Z,0.00
2022-11-17T05:51:01.233Z,0.00
2022-11-17T05:52:01.240Z,0.00
2022-11-17T05:53:01.201Z,0.00
2022-11-17T05:54:01.205Z,0.00
2022-11-17T05:55:01.917Z,0.00
2022-11-17T05:56:01.180Z,0.00
2022-11-17T05:57:01.168Z,0.00
2022-11-17T05:58:01.223Z,0.00
2022-11-17T05:59:01.159Z,0.00
2022-11-17T06:00:01.147Z,0.00
2022-11-17T06:01:01.144Z,0.00
2022-11-17T06:02:01.129Z,0.00
2022-11-17T06:03:01.104Z,0.00
2022-11-17T06:04:01.201Z,0.00
2022-11-17T06:05:01.075Z,0.00
2022-11-17T06:06:01.072Z,0.00
2022-11-17T06:07:01.130Z,0.00
2022-11-17T06:08:01.054Z,0.00
2022-11-17T06:09:01.038Z,0.00
2022-11-17T06:10:01.045Z,0.00
2022-11-17T06:11:01.018Z,0.00
2022-11-17T06:12:05.526Z,0.00
2022-11-17T06:13:01.992Z,0.00
2022-11-17T06:14:00.988Z,0.00
2022-11-17T06:15:01.006Z,0.00
2022-11-17T06:16:00.955Z,0.00
2022-11-17T06:17:00.954Z,0.00
2022-11-17T06:18:00.934Z,0.00
2022-11-17T06:19:00.917Z,0.00
2022-11-17T06:20:00.913Z,0.00
2022-11-17T06:21:00.917Z,0.00
2022-11-17T06:22:13.106Z,0.00
2022-11-17T06:23:01.857Z,0.00
2022-11-17T06:24:00.887Z,0.00
2022-11-17T06:25:00.834Z,0.00
2022-11-17T06:26:00.872Z,0.00
2022-11-17T06:27:00.857Z,0.00
2022-11-17T06:28:00.818Z,0.00
2022-11-17T06:29:00.799Z,0.00
2022-11-17T06:30:00.791Z,0.00
2022-11-17T06:31:00.777Z,0.00
2022-11-17T06:32:00.757Z,0.00
2022-11-17T06:33:00.809Z,0.00
2022-11-17T06:34:00.749Z,0.00
2022-11-17T06:35:00.760Z,0.00
2022-11-17T06:36:00.697Z,0.00
2022-11-17T06:37:00.707Z,0.00
2022-11-17T06:38:00.728Z,0.00
2022-11-17T06:39:00.700Z,0.00
2022-11-17T06:40:00.681Z,0.00
2022-11-17T06:41:00.649Z,0.00
2022-11-17T06:42:00.635Z,0.00
2022-11-17T06:43:00.658Z,0.00
2022-11-17T06:44:00.687Z,0.00
2022-11-17T06:45:00.625Z,0.00
2022-11-17T06:46:00.620Z,0.00
2022-11-17T06:47:00.605Z,0.00
2022-11-17T06:48:00.557Z,0.00
2022-11-17T06:49:00.599Z,0.00
2022-11-17T06:50:00.619Z,0.00
2022-11-17T06:51:00.540Z,0.00
2022-11-17T06:52:00.552Z,0.00
2022-11-17T06:53:00.583Z,0.00
2022-11-17T06:54:00.596Z,0.00
2022-11-17T06:55:00.528Z,0.00
2022-11-17T06:56:00.564Z,0.00
2022-11-17T06:57:00.497Z,0.00
2022-11-17T06:58:00.549Z,0.00
2022-11-17T06:59:00.490Z,0.00
2022-11-17T07:00:00.476Z,0.00
2022-11-17T07:01:00.572Z,0.00
2022-11-17T07:02:00.480Z,0.00
2022-11-17T07:03:00.428Z,0.00
2022-11-17T07:04:00.429Z,0.00
2022-11-17T07:05:00.417Z,0.00
2022-11-17T07:06:00.468Z,0.00
2022-11-17T07:07:00.495Z,0.00
2022-11-17T07:08:00.399Z,0.00
2022-11-17T07:09:00.370Z,0.00
2022-11-17T07:10:00.420Z,5.62
2022-11-17T07:11:00.355Z,5.62
2022-11-17T07:12:00.360Z,5.62
2022-11-17T07:13:01.492Z,5.62
2022-11-17T07:14:00.331Z,0.00
2022-11-17T07:15:00.314Z,0.00
2022-11-17T07:16:00.279Z,0.00
2022-11-17T07:17:00.243Z,0.00
2022-11-17T07:18:00.256Z,0.00
2022-11-17T07:19:00.321Z,5.62
2022-11-17T07:20:00.247Z,5.62
2022-11-17T07:21:00.202Z,0.00
2022-11-17T07:22:00.215Z,0.00
2022-11-17T07:23:00.193Z,0.00
2022-11-17T07:24:00.193Z,0.00
2022-11-17T07:25:00.215Z,0.00
2022-11-17T07:26:00.161Z,0.00
2022-11-17T07:27:00.202Z,5.62
2022-11-17T07:28:00.191Z,5.62
2022-11-17T07:29:00.151Z,5.62
2022-11-17T07:30:00.144Z,5.62
2022-11-17T07:31:00.144Z,5.62
2022-11-17T07:32:00.103Z,5.62
2022-11-17T07:33:00.131Z,5.62
2022-11-17T07:34:00.074Z,5.62
2022-11-17T07:35:00.034Z,5.62
2022-11-17T07:36:00.138Z,11.25
2022-11-17T07:37:00.016Z,11.25
2022-11-17T07:38:00.029Z,11.25
2022-11-17T07:38:59.994Z,11.25
2022-11-17T07:39:59.998Z,11.25
2022-11-17T07:40:59.995Z,11.25
2022-11-17T07:42:00.006Z,11.25
2022-11-17T07:42:59.956Z,22.50
2022-11-17T07:43:59.956Z,22.50
2022-11-17T07:44:59.936Z,22.50
2022-11-17T07:45:59.931Z,28.12
2022-11-17T07:46:59.906Z,33.75
2022-11-17T07:47:59.926Z,39.38
2022-11-17T07:48:59.885Z,50.62
2022-11-17T07:49:59.896Z,56.25
2022-11-17T07:50:59.854Z,50.62
2022-11-17T07:51:59.897Z,45.00
2022-11-17T07:52:59.857Z,39.38
2022-11-17T07:53:59.839Z,39.38
2022-11-17T07:54:59.810Z,45.00
2022-11-17T07:55:59.811Z,39.38
2022-11-17T07:56:59.805Z,33.75
2022-11-17T07:57:59.767Z,28.12
2022-11-17T07:58:59.837Z,16.88
2022-11-17T07:59:59.747Z,16.88
2022-11-17T08:00:59.790Z,16.88
2022-11-17T08:01:59.758Z,16.88
2022-11-17T08:02:59.778Z,16.88
2022-11-17T08:03:59.785Z,16.88
2022-11-17T08:04:59.772Z,16.88
2022-11-17T08:05:59.687Z,16.88
2022-11-17T08:06:59.743Z,22.50
2022-11-17T08:07:59.730Z,22.50
2022-11-17T08:08:59.670Z,16.88
2022-11-17T08:09:59.629Z,11.25
2022-11-17T08:11:01.489Z,11.25
2022-11-17T08:11:59.608Z,11.25
2022-11-17T08:12:59.617Z,16.88
2022-11-17T08:13:59.592Z,16.88
2022-11-17T08:14:59.596Z,16.88
2022-11-17T08:15:59.703Z,11.25
2022-11-17T08:16:59.587Z,11.25
2022-11-17T08:17:59.540Z,11.25
2022-11-17T08:18:59.552Z,11.25
2022-11-17T08:19:59.511Z,11.25
2022-11-17T08:20:59.531Z,11.25
2022-11-17T08:21:59.511Z,11.25
2022-11-17T08:22:59.503Z,16.88
2022-11-17T08:23:59.471Z,28.12
2022-11-17T08:24:59.481Z,28.12
2022-11-17T08:25:59.561Z,28.12
2022-11-17T08:26:59.459Z,28.12
2022-11-17T08:27:59.441Z,28.12
2022-11-17T08:28:59.436Z,22.50
2022-11-17T08:29:59.457Z,16.88
2022-11-17T08:30:59.451Z,16.88
2022-11-17T08:31:59.403Z,11.25
2022-11-17T08:32:59.393Z,11.25
2022-11-17T08:33:59.366Z,11.25
2022-11-17T08:34:59.363Z,11.25
2022-11-17T08:35:59.328Z,11.25
2022-11-17T08:36:59.334Z,11.25
2022-11-17T08:37:59.338Z,11.25
2022-11-17T08:38:59.324Z,11.25
2022-11-17T08:39:59.285Z,11.25
2022-11-17T08:40:59.295Z,11.25
2022-11-17T08:41:59.265Z,11.25
2022-11-17T08:43:00.973Z,11.25
2022-11-17T08:43:59.255Z,11.25
2022-11-17T08:44:59.264Z,16.88
2022-11-17T08:45:59.240Z,16.88
2022-11-17T08:46:59.255Z,16.88
2022-11-17T08:47:59.278Z,16.88
2022-11-17T08:48:59.234Z,16.88
2022-11-17T08:49:59.252Z,16.88
2022-11-17T08:50:59.217Z,11.25
2022-11-17T08:51:59.195Z,11.25
2022-11-17T08:52:59.177Z,11.25
2022-11-17T08:53:59.158Z,11.25
2022-11-17T08:54:59.188Z,11.25
2022-11-17T08:55:59.215Z,11.25
2022-11-17T08:56:59.171Z,11.25
2022-11-17T08:57:59.155Z,11.25
2022-11-17T08:58:59.071Z,11.25
2022-11-17T08:59:59.097Z,11.25
2022-11-17T09:01:04.917Z,11.25
2022-11-17T09:02:00.105Z,11.25
2022-11-17T09:02:59.057Z,5.62
2022-11-17T09:03:59.024Z,5.62
2022-11-17T09:04:59.081Z,5.62
2022-11-17T09:05:59.022Z,5.62
2022-11-17T09:06:59.170Z,5.62
2022-11-17T09:08:15.930Z,5.62
2022-11-17T09:09:00.186Z,11.25
2022-11-17T09:09:59.012Z,5.62
2022-11-17T09:10:58.951Z,11.25
2022-11-17T09:11:58.983Z,5.62
2022-11-17T09:12:58.934Z,5.62
2022-11-17T09:13:58.913Z,5.62
2022-11-17T09:14:58.864Z,5.62
2022-11-17T09:15:58.903Z,5.62
2022-11-17T09:16:58.854Z,5.62
2022-11-17T09:17:58.865Z,5.62
2022-11-17T09:18:58.883Z,5.62
2022-11-17T09:19:58.884Z,5.62
2022-11-17T09:20:58.814Z,5.62
2022-11-17T09:21:58.845Z,5.62
2022-11-17T09:22:58.797Z,5.62
2022-11-17T09:23:58.867Z,5.62
2022-11-17T09:24:58.761Z,5.62
2022-11-17T09:25:58.761Z,5.62
2022-11-17T09:26:58.757Z,5.62
2022-11-17T09:27:58.751Z,11.25
2022-11-17T09:28:58.715Z,11.25
2022-11-17T09:29:58.789Z,11.25
2022-11-17T09:30:59.613Z,16.88
2022-11-17T09:31:58.696Z,16.88
2022-11-17T09:32:58.658Z,16.88
2022-11-17T09:34:02.239Z,16.88
2022-11-17T09:34:59.688Z,11.25
2022-11-17T09:35:58.657Z,11.25
2022-11-17T09:36:58.627Z,11.25
2022-11-17T09:37:58.649Z,16.88
2022-11-17T09:38:58.597Z,16.88
2022-11-17T09:39:58.618Z,16.88
2022-11-17T09:40:58.609Z,22.50
2022-11-17T09:41:58.665Z,28.12
2022-11-17T09:42:58.549Z,33.75
2022-11-17T09:43:58.553Z,33.75
2022-11-17T09:44:58.541Z,39.38
2022-11-17T09:46:01.834Z,45.00
2022-11-17T09:46:59.551Z,45.00
2022-11-17T09:48:12.448Z,50.62
2022-11-17T09:48:59.520Z,50.62
2022-11-17T09:49:59.391Z,56.25
2022-11-17T09:50:58.480Z,61.88
2022-11-17T09:51:58.459Z,61.88
2022-11-17T09:52:58.490Z,67.50
2022-11-17T09:53:58.505Z,67.50
2022-11-17T09:54:58.399Z,67.50
2022-11-17T09:55:58.380Z,73.12
2022-11-17T09:56:58.389Z,73.12
2022-11-17T09:57:58.393Z,78.75
2022-11-17T09:58:58.371Z,73.12
2022-11-17T09:59:58.342Z,73.12
2022-11-17T10:00:58.362Z,67.50
2022-11-17T10:01:58.332Z,67.50
2022-11-17T10:02:58.331Z,61.88
2022-11-17T10:03:58.331Z,56.25
2022-11-17T10:04:58.342Z,50.62
2022-11-17T10:05:58.263Z,45.00
2022-11-17T10:06:58.310Z,39.38
2022-11-17T10:07:58.253Z,33.75
2022-11-17T10:08:58.329Z,28.12
2022-11-17T10:09:58.372Z,22.50
2022-11-17T10:10:58.231Z,22.50
2022-11-17T10:11:58.219Z,22.50
2022-11-17T10:12:58.205Z,22.50
2022-11-17T10:13:58.173Z,22.50
2022-11-17T10:14:58.228Z,22.50
2022-11-17T10:15:58.214Z,16.88
2022-11-17T10:16:58.167Z,16.88
2022-11-17T10:17:58.145Z,16.88
2022-11-17T10:18:58.137Z,16.88
2022-11-17T10:19:58.149Z,22.50
2022-11-17T10:20:58.183Z,22.50
2022-11-17T10:21:58.247Z,22.50
2022-11-17T10:22:58.085Z,22.50
2022-11-17T10:23:58.083Z,22.50
2022-11-17T10:24:58.075Z,22.50
2022-11-17T10:25:58.042Z,22.50
2022-11-17T10:26:58.370Z,22.50
2022-11-17T10:27:58.037Z,28.12
2022-11-17T10:28:58.046Z,28.12
2022-11-17T10:29:57.996Z,28.12
2022-11-17T10:30:58.035Z,22.50
2022-11-17T10:31:57.978Z,22.50
2022-11-17T10:32:58.011Z,22.50
2022-11-17T10:33:58.089Z,22.50
2022-11-17T10:34:57.967Z,22.50
2022-11-17T10:35:57.929Z,16.88
2022-11-17T10:36:57.950Z,16.88
2022-11-17T10:37:57.928Z,16.88
2022-11-17T10:38:58.320Z,16.88
2022-11-17T10:39:57.948Z,16.88
2022-11-17T10:40:57.945Z,16.88
2022-11-17T10:41:57.888Z,22.50
2022-11-17T10:42:57.889Z,22.50
2022-11-17T10:43:57.929Z,28.12
2022-11-17T10:44:57.960Z,39.38
2022-11-17T10:45:57.850Z,50.62
2022-11-17T10:47:02.259Z,61.88
2022-11-17T10:47:58.800Z,73.12
2022-11-17T10:48:57.840Z,90.00
2022-11-17T10:49:57.830Z,101.25
2022-11-17T10:50:57.790Z,112.50
2022-11-17T10:51:57.740Z,112.50
2022-11-17T10:52:57.766Z,112.50
2022-11-17T10:53:57.730Z,118.12
2022-11-17T10:54:57.740Z,118.12
2022-11-17T10:55:57.770Z,118.12
2022-11-17T10:56:57.703Z,118.12
2022-11-17T10:57:57.726Z,135.00
2022-11-17T10:58:57.691Z,151.88
2022-11-17T10:59:57.996Z,135.00
2022-11-17T11:00:57.703Z,129.38
2022-11-17T11:01:57.687Z,135.00
2022-11-17T11:02:57.663Z,140.62
2022-11-17T11:03:57.620Z,135.00
2022-11-17T11:04:57.601Z,135.00
2022-11-17T11:05:57.594Z,135.00
2022-11-17T11:06:57.645Z,129.38
2022-11-17T11:07:57.591Z,123.75
2022-11-17T11:08:57.586Z,123.75
2022-11-17T11:09:57.538Z,118.12
2022-11-17T11:10:57.615Z,106.88
2022-11-17T11:11:57.523Z,90.00
2022-11-17T11:12:57.546Z,78.75
2022-11-17T11:13:57.493Z,61.88
2022-11-17T11:14:57.518Z,50.62
2022-11-17T11:15:57.508Z,45.00
2022-11-17T11:16:57.493Z,39.38
2022-11-17T11:17:57.483Z,33.75
2022-11-17T11:18:57.514Z,33.75
2022-11-17T11:19:57.433Z,33.75
2022-11-17T11:20:57.448Z,33.75
2022-11-17T11:21:57.411Z,45.00
2022-11-17T11:22:57.415Z,56.25
2022-11-17T11:23:57.404Z,67.50
2022-11-17T11:24:57.548Z,73.12
2022-11-17T11:25:57.361Z,78.75
2022-11-17T11:26:57.376Z,84.38
2022-11-17T11:27:57.352Z,95.62
2022-11-17T11:28:57.347Z,95.62
2022-11-17T11:29:57.296Z,95.62
2022-11-17T11:30:57.376Z,95.62
2022-11-17T11:31:57.287Z,101.25
2022-11-17T11:32:57.296Z,106.88
2022-11-17T11:33:57.289Z,106.88
2022-11-17T11:34:57.268Z,106.88
2022-11-17T11:35:57.233Z,106.88
2022-11-17T11:36:57.257Z,106.88
2022-11-17T11:37:57.219Z,106.88
2022-11-17T11:38:57.240Z,112.50
2022-11-17T11:39:57.180Z,112.50
2022-11-17T11:40:57.218Z,112.50
2022-11-17T11:41:57.192Z,112.50
2022-11-17T11:42:57.208Z,112.50
2022-11-17T11:43:57.139Z,106.88
2022-11-17T11:44:57.149Z,106.88
2022-11-17T11:45:57.433Z,101.25
2022-11-17T11:46:57.395Z,101.25
2022-11-17T11:47:57.203Z,95.62
2022-11-17T11:48:57.138Z,95.62
2022-11-17T11:49:57.093Z,90.00
2022-11-17T11:50:57.085Z,90.00
2022-11-17T11:51:57.078Z,84.38
2022-11-17T11:52:57.175Z,84.38
2022-11-17T11:53:57.092Z,84.38
2022-11-17T11:54:57.094Z,84.38
2022-11-17T11:55:57.061Z,78.75
2022-11-17T11:56:57.001Z,78.75
2022-11-17T11:57:57.022Z,78.75
2022-11-17T11:58:57.049Z,78.75
2022-11-17T12:00:02.417Z,78.75
2022-11-17T12:00:57.971Z,78.75
2022-11-17T12:01:57.029Z,78.75
2022-11-17T12:02:56.996Z,78.75
2022-11-17T12:03:56.947Z,78.75
2022-11-17T12:04:56.935Z,78.75
2022-11-17T12:05:56.912Z,84.38
2022-11-17T12:06:56.926Z,84.38
2022-11-17T12:07:56.913Z,84.38
2022-11-17T12:08:56.864Z,84.38
2022-11-17T12:09:56.867Z,84.38
2022-11-17T12:10:56.925Z,84.38
2022-11-17T12:11:56.838Z,90.00
2022-11-17T12:12:56.839Z,95.62
2022-11-17T12:13:56.828Z,106.88
2022-11-17T12:14:57.545Z,112.50
2022-11-17T12:15:56.847Z,118.12
2022-11-17T12:16:56.784Z,123.75
2022-11-17T12:17:56.799Z,129.38
2022-11-17T12:18:56.818Z,123.75
2022-11-17T12:19:56.806Z,123.75
2022-11-17T12:20:56.798Z,118.12
2022-11-17T12:21:56.787Z,112.50
2022-11-17T12:22:56.715Z,112.50
2022-11-17T12:23:56.744Z,106.88
2022-11-17T12:24:56.656Z,106.88
2022-11-17T12:25:56.697Z,106.88
2022-11-17T12:26:56.658Z,106.88
2022-11-17T12:27:56.693Z,106.88
2022-11-17T12:28:56.617Z,106.88
2022-11-17T12:29:56.625Z,106.88
2022-11-17T12:30:56.615Z,112.50
2022-11-17T12:31:56.609Z,112.50
2022-11-17T12:32:56.592Z,112.50
2022-11-17T12:33:56.588Z,112.50
2022-11-17T12:34:56.547Z,112.50
2022-11-17T12:35:56.557Z,106.88
2022-11-17T12:36:56.601Z,101.25
2022-11-17T12:37:56.530Z,95.62
2022-11-17T12:38:56.565Z,90.00
2022-11-17T12:39:56.502Z,90.00
2022-11-17T12:40:56.472Z,90.00
2022-11-17T12:41:56.490Z,78.75
2022-11-17T12:42:56.461Z,84.38
2022-11-17T12:43:56.502Z,84.38
2022-11-17T12:44:56.440Z,84.38
2022-11-17T12:45:56.439Z,78.75
2022-11-17T12:46:56.460Z,78.75
2022-11-17T12:48:18.778Z,78.75
2022-11-17T12:48:57.426Z,78.75
2022-11-17T12:49:56.691Z,78.75
2022-11-17T12:51:00.496Z,78.75
2022-11-17T12:51:57.396Z,78.75
2022-11-17T12:52:56.369Z,78.75
2022-11-17T12:53:56.372Z,78.75
2022-11-17T12:54:56.366Z,78.75
2022-11-17T12:55:56.305Z,78.75
2022-11-17T12:56:56.346Z,73.12
2022-11-17T12:57:56.308Z,73.12
2022-11-17T12:58:56.316Z,73.12
2022-11-17T12:59:56.275Z,73.12
2022-11-17T13:00:56.343Z,73.12
2022-11-17T13:01:56.264Z,67.50
2022-11-17T13:02:56.256Z,61.88
2022-11-17T13:03:56.216Z,61.88
2022-11-17T13:04:56.245Z,56.25
2022-11-17T13:06:13.146Z,56.25